sensor_id;sensor_type;location;lat;lon;timestamp;temperature;humidity
32506;DHT22;18955;51.224;8.482;2023-11-19T00:00:00;4.70;92.60
32506;DHT22;18955;51.224;8.482;2023-11-19T00:02:26;4.80;92.60
32506;DHT22;18955;51.224;8.482;2023-11-19T00:04:53;4.80;92.60
32506;DHT22;18955;51.224;8.482;2023-11-19T00:07:19;4.80;92.60
32506;DHT22;18955;51.224;8.482;2023-11-19T00:09:46;4.80;92.70
32506;DHT22;18955;51.224;8.482;2023-11-19T00:12:12;4.80;92.60
32506;DHT22;18955;51.224;8.482;2023-11-19T00:14:39;4.80;92.60
32506;DHT22;18955;51.224;8.482;2023-11-19T00:17:05;4.80;92.60
32506;DHT22;18955;51.224;8.482;2023-11-19T00:19:31;4.80;92.60
32506;DHT22;18955;51.224;8.482;2023-11-19T00:21:57;4.80;92.60
32506;DHT22;18955;51.224;8.482;2023-11-19T00:24:29;4.80;92.60
32506;DHT22;18955;51.224;8.482;2023-11-19T00:26:55;4.90;92.60
32506;DHT22;18955;51.224;8.482;2023-11-19T00:29:22;4.90;92.60
32506;DHT22;18955;51.224;8.482;2023-11-19T00:31:48;4.90;92.60
32506;DHT22;18955;51.224;8.482;2023-11-19T00:34:14;4.90;92.60
32506;DHT22;18955;51.224;8.482;2023-11-19T00:36:41;4.90;92.60
32506;DHT22;18955;51.224;8.482;2023-11-19T00:39:07;4.90;92.60
32506;DHT22;18955;51.224;8.482;2023-11-19T00:41:33;4.90;92.60
32506;DHT22;18955;51.224;8.482;2023-11-19T00:43:59;4.90;92.60
32506;DHT22;18955;51.224;8.482;2023-11-19T00:46:25;4.90;92.60
32506;DHT22;18955;51.224;8.482;2023-11-19T00:48:52;4.90;92.60
32506;DHT22;18955;51.224;8.482;2023-11-19T00:51:18;4.90;92.60
32506;DHT22;18955;51.224;8.482;2023-11-19T00:53:44;5.00;92.60
32506;DHT22;18955;51.224;8.482;2023-11-19T00:56:11;5.00;92.60
32506;DHT22;18955;51.224;8.482;2023-11-19T00:58:38;4.90;92.60
32506;DHT22;18955;51.224;8.482;2023-11-19T01:01:04;5.00;92.70
32506;DHT22;18955;51.224;8.482;2023-11-19T01:03:31;4.90;92.60
32506;DHT22;18955;51.224;8.482;2023-11-19T01:05:59;5.00;92.70
32506;DHT22;18955;51.224;8.482;2023-11-19T01:08:27;5.00;92.70
32506;DHT22;18955;51.224;8.482;2023-11-19T01:10:53;5.00;92.70
32506;DHT22;18955;51.224;8.482;2023-11-19T01:13:20;5.00;92.70
32506;DHT22;18955;51.224;8.482;2023-11-19T01:15:46;5.00;92.70
32506;DHT22;18955;51.224;8.482;2023-11-19T01:18:13;5.00;92.60
32506;DHT22;18955;51.224;8.482;2023-11-19T01:20:40;5.00;92.70
32506;DHT22;18955;51.224;8.482;2023-11-19T01:23:06;5.00;92.60
32506;DHT22;18955;51.224;8.482;2023-11-19T01:25:33;5.10;92.70
32506;DHT22;18955;51.224;8.482;2023-11-19T01:28:01;5.10;92.70
32506;DHT22;18955;51.224;8.482;2023-11-19T01:30:28;5.10;92.70
32506;DHT22;18955;51.224;8.482;2023-11-19T01:32:54;5.00;92.60
32506;DHT22;18955;51.224;8.482;2023-11-19T01:35:21;5.10;92.70
32506;DHT22;18955;51.224;8.482;2023-11-19T01:37:49;5.10;92.70
32506;DHT22;18955;51.224;8.482;2023-11-19T01:40:20;5.10;92.70
32506;DHT22;18955;51.224;8.482;2023-11-19T01:42:47;5.10;92.70
32506;DHT22;18955;51.224;8.482;2023-11-19T01:45:25;5.10;92.60
32506;DHT22;18955;51.224;8.482;2023-11-19T01:47:52;5.10;92.60
32506;DHT22;18955;51.224;8.482;2023-11-19T01:50:19;5.10;92.60
32506;DHT22;18955;51.224;8.482;2023-11-19T01:52:45;5.10;92.60
32506;DHT22;18955;51.224;8.482;2023-11-19T01:55:12;5.20;92.60
32506;DHT22;18955;51.224;8.482;2023-11-19T01:57:40;5.20;92.60
32506;DHT22;18955;51.224;8.482;2023-11-19T02:00:09;5.20;92.60
32506;DHT22;18955;51.224;8.482;2023-11-19T02:02:44;5.20;92.70
32506;DHT22;18955;51.224;8.482;2023-11-19T02:05:12;5.20;92.60
32506;DHT22;18955;51.224;8.482;2023-11-19T02:07:39;5.20;92.60
32506;DHT22;18955;51.224;8.482;2023-11-19T02:10:06;5.30;92.60
32506;DHT22;18955;51.224;8.482;2023-11-19T02:12:40;5.20;92.60
32506;DHT22;18955;51.224;8.482;2023-11-19T02:15:09;5.30;92.60
32506;DHT22;18955;51.224;8.482;2023-11-19T02:17:36;5.30;92.60
32506;DHT22;18955;51.224;8.482;2023-11-19T02:20:04;5.30;92.60
32506;DHT22;18955;51.224;8.482;2023-11-19T02:22:35;5.30;92.60
32506;DHT22;18955;51.224;8.482;2023-11-19T02:25:06;5.30;92.60
32506;DHT22;18955;51.224;8.482;2023-11-19T02:30:08;5.30;92.60
32506;DHT22;18955;51.224;8.482;2023-11-19T02:32:35;5.40;92.60
32506;DHT22;18955;51.224;8.482;2023-11-19T02:35:01;5.40;92.60
32506;DHT22;18955;51.224;8.482;2023-11-19T02:37:28;5.40;92.60
32506;DHT22;18955;51.224;8.482;2023-11-19T02:39:54;5.40;92.60
32506;DHT22;18955;51.224;8.482;2023-11-19T02:42:21;5.40;92.60
32506;DHT22;18955;51.224;8.482;2023-11-19T02:44:47;5.50;92.60
32506;DHT22;18955;51.224;8.482;2023-11-19T02:47:14;5.40;92.60
32506;DHT22;18955;51.224;8.482;2023-11-19T02:49:40;5.40;92.70
32506;DHT22;18955;51.224;8.482;2023-11-19T02:52:07;5.40;92.80
32506;DHT22;18955;51.224;8.482;2023-11-19T02:54:36;5.40;92.80
32506;DHT22;18955;51.224;8.482;2023-11-19T02:57:03;5.40;92.80
32506;DHT22;18955;51.224;8.482;2023-11-19T02:59:30;5.50;92.80
32506;DHT22;18955;51.224;8.482;2023-11-19T03:02:05;5.50;92.70
32506;DHT22;18955;51.224;8.482;2023-11-19T03:04:33;5.50;92.90
32506;DHT22;18955;51.224;8.482;2023-11-19T03:06:59;5.50;92.90
32506;DHT22;18955;51.224;8.482;2023-11-19T03:09:27;5.50;92.90
32506;DHT22;18955;51.224;8.482;2023-11-19T03:11:55;5.50;92.80
32506;DHT22;18955;51.224;8.482;2023-11-19T03:14:21;5.50;92.80
32506;DHT22;18955;51.224;8.482;2023-11-19T03:16:49;5.60;92.90
32506;DHT22;18955;51.224;8.482;2023-11-19T03:19:16;5.60;92.80
32506;DHT22;18955;51.224;8.482;2023-11-19T03:21:43;5.60;92.90
32506;DHT22;18955;51.224;8.482;2023-11-19T03:24:13;5.60;92.80
32506;DHT22;18955;51.224;8.482;2023-11-19T03:26:39;5.60;92.80
32506;DHT22;18955;51.224;8.482;2023-11-19T03:29:05;5.70;92.80
32506;DHT22;18955;51.224;8.482;2023-11-19T03:31:32;5.60;92.80
32506;DHT22;18955;51.224;8.482;2023-11-19T03:33:58;5.70;92.90
32506;DHT22;18955;51.224;8.482;2023-11-19T03:36:24;5.70;93.10
32506;DHT22;18955;51.224;8.482;2023-11-19T03:38:51;5.70;93.30
32506;DHT22;18955;51.224;8.482;2023-11-19T03:41:19;5.70;93.40
32506;DHT22;18955;51.224;8.482;2023-11-19T03:43:45;5.70;93.30
32506;DHT22;18955;51.224;8.482;2023-11-19T03:46:21;5.70;93.20
32506;DHT22;18955;51.224;8.482;2023-11-19T03:48:49;5.70;93.00
32506;DHT22;18955;51.224;8.482;2023-11-19T03:51:16;5.70;93.00
32506;DHT22;18955;51.224;8.482;2023-11-19T03:53:46;5.80;93.00
32506;DHT22;18955;51.224;8.482;2023-11-19T03:56:12;5.80;93.00
32506;DHT22;18955;51.224;8.482;2023-11-19T03:58:39;5.80;93.10
32506;DHT22;18955;51.224;8.482;2023-11-19T04:01:06;5.80;93.00
32506;DHT22;18955;51.224;8.482;2023-11-19T04:03:36;5.80;93.00
32506;DHT22;18955;51.224;8.482;2023-11-19T04:06:03;5.80;93.00
32506;DHT22;18955;51.224;8.482;2023-11-19T04:08:30;5.90;93.00
32506;DHT22;18955;51.224;8.482;2023-11-19T04:10:57;5.80;92.90
32506;DHT22;18955;51.224;8.482;2023-11-19T04:13:23;5.90;92.90
32506;DHT22;18955;51.224;8.482;2023-11-19T04:15:50;5.90;92.90
32506;DHT22;18955;51.224;8.482;2023-11-19T04:18:17;5.90;92.90
32506;DHT22;18955;51.224;8.482;2023-11-19T04:20:43;5.90;92.90
32506;DHT22;18955;51.224;8.482;2023-11-19T04:23:09;5.90;92.90
32506;DHT22;18955;51.224;8.482;2023-11-19T04:25:36;5.90;93.00
32506;DHT22;18955;51.224;8.482;2023-11-19T04:28:02;6.00;93.00
32506;DHT22;18955;51.224;8.482;2023-11-19T04:30:28;6.00;93.00
32506;DHT22;18955;51.224;8.482;2023-11-19T04:32:55;6.00;93.10
32506;DHT22;18955;51.224;8.482;2023-11-19T04:35:22;6.00;93.00
32506;DHT22;18955;51.224;8.482;2023-11-19T04:37:48;6.00;93.00
32506;DHT22;18955;51.224;8.482;2023-11-19T04:40:15;6.10;93.20
32506;DHT22;18955;51.224;8.482;2023-11-19T04:42:41;6.00;93.00
32506;DHT22;18955;51.224;8.482;2023-11-19T04:45:07;6.10;93.10
32506;DHT22;18955;51.224;8.482;2023-11-19T04:47:36;6.10;93.00
32506;DHT22;18955;51.224;8.482;2023-11-19T04:50:02;6.10;93.20
32506;DHT22;18955;51.224;8.482;2023-11-19T04:52:29;6.10;93.00
32506;DHT22;18955;51.224;8.482;2023-11-19T04:54:55;6.10;93.00
32506;DHT22;18955;51.224;8.482;2023-11-19T04:57:22;6.10;93.00
32506;DHT22;18955;51.224;8.482;2023-11-19T04:59:48;6.10;93.00
32506;DHT22;18955;51.224;8.482;2023-11-19T05:02:14;6.10;93.30
32506;DHT22;18955;51.224;8.482;2023-11-19T05:04:44;6.20;93.10
32506;DHT22;18955;51.224;8.482;2023-11-19T05:07:12;6.10;93.00
32506;DHT22;18955;51.224;8.482;2023-11-19T05:09:38;6.20;93.10
32506;DHT22;18955;51.224;8.482;2023-11-19T05:12:05;6.20;93.00
32506;DHT22;18955;51.224;8.482;2023-11-19T05:14:34;6.20;93.00
32506;DHT22;18955;51.224;8.482;2023-11-19T05:17:00;6.20;93.20
32506;DHT22;18955;51.224;8.482;2023-11-19T05:19:26;6.20;93.00
32506;DHT22;18955;51.224;8.482;2023-11-19T05:21:53;6.20;93.00
32506;DHT22;18955;51.224;8.482;2023-11-19T05:24:19;6.20;93.10
32506;DHT22;18955;51.224;8.482;2023-11-19T05:26:45;6.30;93.10
32506;DHT22;18955;51.224;8.482;2023-11-19T05:29:13;6.30;93.10
32506;DHT22;18955;51.224;8.482;2023-11-19T05:31:39;6.30;93.10
32506;DHT22;18955;51.224;8.482;2023-11-19T05:34:05;6.30;93.10
32506;DHT22;18955;51.224;8.482;2023-11-19T05:36:33;6.40;93.20
32506;DHT22;18955;51.224;8.482;2023-11-19T05:38:59;6.40;93.20
32506;DHT22;18955;51.224;8.482;2023-11-19T05:41:25;6.40;93.20
32506;DHT22;18955;51.224;8.482;2023-11-19T05:43:51;6.40;93.20
32506;DHT22;18955;51.224;8.482;2023-11-19T05:46:18;6.40;93.20
32506;DHT22;18955;51.224;8.482;2023-11-19T05:48:44;6.40;93.10
32506;DHT22;18955;51.224;8.482;2023-11-19T05:51:12;6.40;93.20
32506;DHT22;18955;51.224;8.482;2023-11-19T05:53:41;6.40;93.20
32506;DHT22;18955;51.224;8.482;2023-11-19T05:56:09;6.40;93.20
32506;DHT22;18955;51.224;8.482;2023-11-19T05:58:35;6.40;93.20
32506;DHT22;18955;51.224;8.482;2023-11-19T06:01:02;6.50;93.20
32506;DHT22;18955;51.224;8.482;2023-11-19T06:03:29;6.50;93.20
32506;DHT22;18955;51.224;8.482;2023-11-19T06:05:55;6.50;93.20
32506;DHT22;18955;51.224;8.482;2023-11-19T06:08:21;6.50;93.20
32506;DHT22;18955;51.224;8.482;2023-11-19T06:10:47;6.50;93.20
32506;DHT22;18955;51.224;8.482;2023-11-19T06:13:16;6.40;93.20
32506;DHT22;18955;51.224;8.482;2023-11-19T06:15:43;6.60;93.30
32506;DHT22;18955;51.224;8.482;2023-11-19T06:18:09;6.50;93.30
32506;DHT22;18955;51.224;8.482;2023-11-19T06:20:37;6.50;93.30
32506;DHT22;18955;51.224;8.482;2023-11-19T06:23:03;6.50;93.30
32506;DHT22;18955;51.224;8.482;2023-11-19T06:25:30;6.60;93.40
32506;DHT22;18955;51.224;8.482;2023-11-19T06:27:56;6.60;93.20
32506;DHT22;18955;51.224;8.482;2023-11-19T06:30:23;6.60;93.30
32506;DHT22;18955;51.224;8.482;2023-11-19T06:32:49;6.60;93.30
32506;DHT22;18955;51.224;8.482;2023-11-19T06:35:15;6.60;93.30
32506;DHT22;18955;51.224;8.482;2023-11-19T06:37:42;6.60;93.30
32506;DHT22;18955;51.224;8.482;2023-11-19T06:40:09;6.70;93.30
32506;DHT22;18955;51.224;8.482;2023-11-19T06:42:36;6.60;93.30
32506;DHT22;18955;51.224;8.482;2023-11-19T06:45:02;6.70;93.20
32506;DHT22;18955;51.224;8.482;2023-11-19T06:47:30;6.70;93.20
32506;DHT22;18955;51.224;8.482;2023-11-19T06:49:56;6.70;93.30
32506;DHT22;18955;51.224;8.482;2023-11-19T06:52:22;6.70;93.20
32506;DHT22;18955;51.224;8.482;2023-11-19T06:54:48;6.70;93.30
32506;DHT22;18955;51.224;8.482;2023-11-19T06:57:14;6.70;93.20
32506;DHT22;18955;51.224;8.482;2023-11-19T06:59:42;6.70;93.20
32506;DHT22;18955;51.224;8.482;2023-11-19T07:02:09;6.70;93.20
32506;DHT22;18955;51.224;8.482;2023-11-19T07:04:35;6.80;93.20
32506;DHT22;18955;51.224;8.482;2023-11-19T07:07:01;6.80;93.50
32506;DHT22;18955;51.224;8.482;2023-11-19T07:09:27;6.80;93.30
32506;DHT22;18955;51.224;8.482;2023-11-19T07:11:54;6.80;93.30
32506;DHT22;18955;51.224;8.482;2023-11-19T07:14:20;6.80;93.30
32506;DHT22;18955;51.224;8.482;2023-11-19T07:16:47;6.80;93.20
32506;DHT22;18955;51.224;8.482;2023-11-19T07:19:13;6.80;93.20
32506;DHT22;18955;51.224;8.482;2023-11-19T07:21:43;6.80;93.20
32506;DHT22;18955;51.224;8.482;2023-11-19T07:24:12;6.80;93.30
32506;DHT22;18955;51.224;8.482;2023-11-19T07:26:43;6.80;93.20
32506;DHT22;18955;51.224;8.482;2023-11-19T07:29:10;6.80;93.20
32506;DHT22;18955;51.224;8.482;2023-11-19T07:31:36;6.80;93.20
32506;DHT22;18955;51.224;8.482;2023-11-19T07:34:03;6.80;93.30
32506;DHT22;18955;51.224;8.482;2023-11-19T07:36:31;6.80;93.20
32506;DHT22;18955;51.224;8.482;2023-11-19T07:38:58;6.80;93.30
32506;DHT22;18955;51.224;8.482;2023-11-19T07:41:25;6.90;93.30
32506;DHT22;18955;51.224;8.482;2023-11-19T07:43:51;6.90;93.30
32506;DHT22;18955;51.224;8.482;2023-11-19T07:46:18;6.90;93.30
32506;DHT22;18955;51.224;8.482;2023-11-19T07:48:47;6.90;93.30
32506;DHT22;18955;51.224;8.482;2023-11-19T07:51:14;6.90;93.30
32506;DHT22;18955;51.224;8.482;2023-11-19T07:53:41;6.90;93.30
32506;DHT22;18955;51.224;8.482;2023-11-19T07:56:08;6.90;93.40
32506;DHT22;18955;51.224;8.482;2023-11-19T07:58:35;6.90;93.40
32506;DHT22;18955;51.224;8.482;2023-11-19T08:01:01;6.90;93.30
32506;DHT22;18955;51.224;8.482;2023-11-19T08:03:30;6.90;93.30
32506;DHT22;18955;51.224;8.482;2023-11-19T08:05:56;6.90;93.30
32506;DHT22;18955;51.224;8.482;2023-11-19T08:08:23;7.00;93.40
32506;DHT22;18955;51.224;8.482;2023-11-19T08:10:49;7.00;93.40
32506;DHT22;18955;51.224;8.482;2023-11-19T08:13:20;7.00;93.40
32506;DHT22;18955;51.224;8.482;2023-11-19T08:15:46;7.00;93.40
32506;DHT22;18955;51.224;8.482;2023-11-19T08:18:13;7.00;93.40
32506;DHT22;18955;51.224;8.482;2023-11-19T08:20:39;7.00;93.40
32506;DHT22;18955;51.224;8.482;2023-11-19T08:23:05;7.00;93.30
32506;DHT22;18955;51.224;8.482;2023-11-19T08:25:32;7.00;93.30
32506;DHT22;18955;51.224;8.482;2023-11-19T08:28:00;7.00;93.30
32506;DHT22;18955;51.224;8.482;2023-11-19T08:30:26;7.00;93.30
32506;DHT22;18955;51.224;8.482;2023-11-19T08:32:53;7.00;93.30
32506;DHT22;18955;51.224;8.482;2023-11-19T08:35:19;7.00;93.30
32506;DHT22;18955;51.224;8.482;2023-11-19T08:37:45;7.00;93.30
32506;DHT22;18955;51.224;8.482;2023-11-19T08:40:12;7.00;93.30
32506;DHT22;18955;51.224;8.482;2023-11-19T08:42:40;7.00;93.20
32506;DHT22;18955;51.224;8.482;2023-11-19T08:45:08;7.00;93.20
32506;DHT22;18955;51.224;8.482;2023-11-19T08:47:36;7.10;93.30
32506;DHT22;18955;51.224;8.482;2023-11-19T08:50:03;7.10;93.30
32506;DHT22;18955;51.224;8.482;2023-11-19T08:52:30;7.10;93.30
32506;DHT22;18955;51.224;8.482;2023-11-19T08:54:56;7.10;93.30
32506;DHT22;18955;51.224;8.482;2023-11-19T08:57:23;7.10;93.30
32506;DHT22;18955;51.224;8.482;2023-11-19T08:59:49;7.00;93.20
32506;DHT22;18955;51.224;8.482;2023-11-19T09:02:15;7.10;93.30
32506;DHT22;18955;51.224;8.482;2023-11-19T09:04:42;7.10;93.40
32506;DHT22;18955;51.224;8.482;2023-11-19T09:07:08;7.10;93.30
32506;DHT22;18955;51.224;8.482;2023-11-19T09:09:38;7.10;93.40
32506;DHT22;18955;51.224;8.482;2023-11-19T09:12:05;7.10;93.30
32506;DHT22;18955;51.224;8.482;2023-11-19T09:14:31;7.10;93.30
32506;DHT22;18955;51.224;8.482;2023-11-19T09:16:58;7.10;93.40
32506;DHT22;18955;51.224;8.482;2023-11-19T09:19:24;7.10;93.40
32506;DHT22;18955;51.224;8.482;2023-11-19T09:21:53;7.10;93.40
32506;DHT22;18955;51.224;8.482;2023-11-19T09:24:19;7.10;93.40
32506;DHT22;18955;51.224;8.482;2023-11-19T09:26:46;7.20;93.40
32506;DHT22;18955;51.224;8.482;2023-11-19T09:29:12;7.40;93.50
32506;DHT22;18955;51.224;8.482;2023-11-19T09:31:40;7.20;93.40
32506;DHT22;18955;51.224;8.482;2023-11-19T09:34:06;7.20;93.40
32506;DHT22;18955;51.224;8.482;2023-11-19T09:36:33;7.20;93.50
32506;DHT22;18955;51.224;8.482;2023-11-19T09:39:00;7.20;93.40
32506;DHT22;18955;51.224;8.482;2023-11-19T09:41:27;7.20;93.40
32506;DHT22;18955;51.224;8.482;2023-11-19T09:43:54;7.20;93.40
32506;DHT22;18955;51.224;8.482;2023-11-19T09:46:22;7.30;93.40
32506;DHT22;18955;51.224;8.482;2023-11-19T09:48:52;7.20;93.40
32506;DHT22;18955;51.224;8.482;2023-11-19T09:51:20;7.30;93.40
32506;DHT22;18955;51.224;8.482;2023-11-19T09:53:48;7.20;93.30
32506;DHT22;18955;51.224;8.482;2023-11-19T09:56:15;7.30;93.40
32506;DHT22;18955;51.224;8.482;2023-11-19T09:58:44;7.30;93.40
32506;DHT22;18955;51.224;8.482;2023-11-19T10:01:10;7.30;93.40
32506;DHT22;18955;51.224;8.482;2023-11-19T10:03:39;7.30;93.40
32506;DHT22;18955;51.224;8.482;2023-11-19T10:06:07;7.30;93.30
32506;DHT22;18955;51.224;8.482;2023-11-19T10:08:37;7.40;93.40
32506;DHT22;18955;51.224;8.482;2023-11-19T10:11:06;7.40;93.40
32506;DHT22;18955;51.224;8.482;2023-11-19T10:13:35;7.40;93.40
32506;DHT22;18955;51.224;8.482;2023-11-19T10:16:13;7.40;93.40
32506;DHT22;18955;51.224;8.482;2023-11-19T10:18:47;7.40;93.40
32506;DHT22;18955;51.224;8.482;2023-11-19T10:21:14;7.50;93.40
32506;DHT22;18955;51.224;8.482;2023-11-19T10:23:54;7.50;93.40
32506;DHT22;18955;51.224;8.482;2023-11-19T10:26:20;7.50;93.30
32506;DHT22;18955;51.224;8.482;2023-11-19T10:28:47;7.50;93.30
32506;DHT22;18955;51.224;8.482;2023-11-19T10:31:14;7.50;93.40
32506;DHT22;18955;51.224;8.482;2023-11-19T10:33:41;7.50;93.40
32506;DHT22;18955;51.224;8.482;2023-11-19T10:36:08;7.50;93.40
32506;DHT22;18955;51.224;8.482;2023-11-19T10:38:34;7.50;93.40
32506;DHT22;18955;51.224;8.482;2023-11-19T10:41:01;7.50;93.50
32506;DHT22;18955;51.224;8.482;2023-11-19T10:43:27;7.50;93.50
32506;DHT22;18955;51.224;8.482;2023-11-19T10:45:54;7.60;93.50
32506;DHT22;18955;51.224;8.482;2023-11-19T10:48:20;7.60;93.40
32506;DHT22;18955;51.224;8.482;2023-11-19T10:50:53;7.60;93.40
32506;DHT22;18955;51.224;8.482;2023-11-19T10:53:21;7.60;93.50
32506;DHT22;18955;51.224;8.482;2023-11-19T10:55:49;7.60;93.50
32506;DHT22;18955;51.224;8.482;2023-11-19T10:58:16;7.60;93.50
32506;DHT22;18955;51.224;8.482;2023-11-19T11:00:53;7.60;93.40
32506;DHT22;18955;51.224;8.482;2023-11-19T11:03:21;7.60;93.40
32506;DHT22;18955;51.224;8.482;2023-11-19T11:05:52;7.60;93.40
32506;DHT22;18955;51.224;8.482;2023-11-19T11:08:20;7.60;93.40
32506;DHT22;18955;51.224;8.482;2023-11-19T11:10:54;7.70;93.40
32506;DHT22;18955;51.224;8.482;2023-11-19T11:13:23;7.70;93.50
32506;DHT22;18955;51.224;8.482;2023-11-19T11:15:56;7.70;93.40
32506;DHT22;18955;51.224;8.482;2023-11-19T11:18:24;7.70;93.40
32506;DHT22;18955;51.224;8.482;2023-11-19T11:21:00;7.80;93.40
32506;DHT22;18955;51.224;8.482;2023-11-19T11:29:02;7.80;93.50
32506;DHT22;18955;51.224;8.482;2023-11-19T11:34:31;7.80;93.50
32506;DHT22;18955;51.224;8.482;2023-11-19T11:38:03;7.80;93.50
32506;DHT22;18955;51.224;8.482;2023-11-19T11:40:02;7.80;93.50
32506;DHT22;18955;51.224;8.482;2023-11-19T11:50:18;7.80;93.40
32506;DHT22;18955;51.224;8.482;2023-11-19T11:55:36;7.90;93.50
32506;DHT22;18955;51.224;8.482;2023-11-19T11:58:05;7.90;93.50
32506;DHT22;18955;51.224;8.482;2023-11-19T12:00:32;7.90;93.70
32506;DHT22;18955;51.224;8.482;2023-11-19T12:03:04;7.90;93.50
32506;DHT22;18955;51.224;8.482;2023-11-19T12:05:30;7.90;93.50
32506;DHT22;18955;51.224;8.482;2023-11-19T12:08:01;7.90;93.50
32506;DHT22;18955;51.224;8.482;2023-11-19T12:10:32;7.90;93.50
32506;DHT22;18955;51.224;8.482;2023-11-19T12:12:59;7.90;93.50
32506;DHT22;18955;51.224;8.482;2023-11-19T12:15:26;7.90;93.50
32506;DHT22;18955;51.224;8.482;2023-11-19T12:17:54;8.00;93.50
32506;DHT22;18955;51.224;8.482;2023-11-19T12:20:24;7.90;93.50
32506;DHT22;18955;51.224;8.482;2023-11-19T12:22:53;7.90;93.50
32506;DHT22;18955;51.224;8.482;2023-11-19T12:25:20;7.90;93.60
32506;DHT22;18955;51.224;8.482;2023-11-19T12:27:52;8.00;93.60
32506;DHT22;18955;51.224;8.482;2023-11-19T12:32:48;8.00;93.80
32506;DHT22;18955;51.224;8.482;2023-11-19T12:35:15;8.00;93.50
32506;DHT22;18955;51.224;8.482;2023-11-19T12:37:47;8.00;93.50
32506;DHT22;18955;51.224;8.482;2023-11-19T12:40:24;8.00;93.50
32506;DHT22;18955;51.224;8.482;2023-11-19T12:42:54;8.00;93.50
32506;DHT22;18955;51.224;8.482;2023-11-19T12:45:21;8.00;93.50
32506;DHT22;18955;51.224;8.482;2023-11-19T12:47:49;8.00;93.50
32506;DHT22;18955;51.224;8.482;2023-11-19T12:50:18;8.00;93.50
32506;DHT22;18955;51.224;8.482;2023-11-19T12:52:57;8.00;93.60
32506;DHT22;18955;51.224;8.482;2023-11-19T12:55:30;8.00;93.60
32506;DHT22;18955;51.224;8.482;2023-11-19T12:57:58;8.00;93.70
32506;DHT22;18955;51.224;8.482;2023-11-19T13:00:26;8.00;93.60
32506;DHT22;18955;51.224;8.482;2023-11-19T13:02:55;8.00;93.60
32506;DHT22;18955;51.224;8.482;2023-11-19T13:05:31;8.00;93.60
32506;DHT22;18955;51.224;8.482;2023-11-19T13:08:06;8.00;93.60
32506;DHT22;18955;51.224;8.482;2023-11-19T13:13:15;8.10;93.60
32506;DHT22;18955;51.224;8.482;2023-11-19T13:15:41;8.10;93.60
32506;DHT22;18955;51.224;8.482;2023-11-19T13:18:07;8.00;93.60
32506;DHT22;18955;51.224;8.482;2023-11-19T13:20:33;8.10;93.60
32506;DHT22;18955;51.224;8.482;2023-11-19T13:23:01;8.10;93.60
32506;DHT22;18955;51.224;8.482;2023-11-19T13:25:28;8.10;93.60
32506;DHT22;18955;51.224;8.482;2023-11-19T13:27:56;8.10;93.60
32506;DHT22;18955;51.224;8.482;2023-11-19T13:30:23;8.10;93.60
32506;DHT22;18955;51.224;8.482;2023-11-19T13:32:50;8.10;93.60
32506;DHT22;18955;51.224;8.482;2023-11-19T13:35:18;8.10;93.70
32506;DHT22;18955;51.224;8.482;2023-11-19T13:37:45;8.10;93.60
32506;DHT22;18955;51.224;8.482;2023-11-19T13:40:12;8.10;93.60
32506;DHT22;18955;51.224;8.482;2023-11-19T13:42:42;8.10;93.60
32506;DHT22;18955;51.224;8.482;2023-11-19T13:45:09;8.10;93.60
32506;DHT22;18955;51.224;8.482;2023-11-19T13:47:40;8.10;93.60
32506;DHT22;18955;51.224;8.482;2023-11-19T13:50:09;8.10;93.60
32506;DHT22;18955;51.224;8.482;2023-11-19T13:52:39;8.10;93.60
32506;DHT22;18955;51.224;8.482;2023-11-19T13:55:07;8.10;93.60
32506;DHT22;18955;51.224;8.482;2023-11-19T13:57:38;8.10;93.60
32506;DHT22;18955;51.224;8.482;2023-11-19T14:00:05;8.10;93.60
32506;DHT22;18955;51.224;8.482;2023-11-19T14:02:35;8.10;93.60
32506;DHT22;18955;51.224;8.482;2023-11-19T14:05:01;8.10;93.60
32506;DHT22;18955;51.224;8.482;2023-11-19T14:07:27;8.10;93.50
32506;DHT22;18955;51.224;8.482;2023-11-19T14:09:54;8.10;93.50
32506;DHT22;18955;51.224;8.482;2023-11-19T14:12:20;8.10;93.60
32506;DHT22;18955;51.224;8.482;2023-11-19T14:14:47;8.10;93.60
32506;DHT22;18955;51.224;8.482;2023-11-19T14:17:14;8.10;93.60
32506;DHT22;18955;51.224;8.482;2023-11-19T14:19:42;8.10;93.60
32506;DHT22;18955;51.224;8.482;2023-11-19T14:22:08;8.10;93.60
32506;DHT22;18955;51.224;8.482;2023-11-19T14:24:35;8.10;93.60
32506;DHT22;18955;51.224;8.482;2023-11-19T14:27:01;8.20;93.60
32506;DHT22;18955;51.224;8.482;2023-11-19T14:29:28;8.10;93.60
32506;DHT22;18955;51.224;8.482;2023-11-19T14:31:57;8.10;93.60
32506;DHT22;18955;51.224;8.482;2023-11-19T14:34:24;8.10;93.60
32506;DHT22;18955;51.224;8.482;2023-11-19T14:36:52;8.10;93.60
32506;DHT22;18955;51.224;8.482;2023-11-19T14:39:19;8.10;93.60
32506;DHT22;18955;51.224;8.482;2023-11-19T14:41:46;8.10;93.60
32506;DHT22;18955;51.224;8.482;2023-11-19T14:44:12;8.10;93.60
32506;DHT22;18955;51.224;8.482;2023-11-19T14:46:38;8.10;93.60
32506;DHT22;18955;51.224;8.482;2023-11-19T14:49:05;8.10;93.60
32506;DHT22;18955;51.224;8.482;2023-11-19T14:51:31;8.10;93.60
32506;DHT22;18955;51.224;8.482;2023-11-19T14:53:57;8.10;93.60
32506;DHT22;18955;51.224;8.482;2023-11-19T14:56:24;8.10;93.60
32506;DHT22;18955;51.224;8.482;2023-11-19T14:58:50;8.10;93.60
32506;DHT22;18955;51.224;8.482;2023-11-19T15:01:17;8.10;93.70
32506;DHT22;18955;51.224;8.482;2023-11-19T15:03:44;8.10;93.60
32506;DHT22;18955;51.224;8.482;2023-11-19T15:06:11;8.10;93.60
32506;DHT22;18955;51.224;8.482;2023-11-19T15:08:37;8.10;93.60
32506;DHT22;18955;51.224;8.482;2023-11-19T15:11:04;8.10;93.60
32506;DHT22;18955;51.224;8.482;2023-11-19T15:13:32;8.10;93.50
32506;DHT22;18955;51.224;8.482;2023-11-19T15:15:59;8.10;93.50
32506;DHT22;18955;51.224;8.482;2023-11-19T15:18:25;8.10;93.50
32506;DHT22;18955;51.224;8.482;2023-11-19T15:20:52;8.10;93.80
32506;DHT22;18955;51.224;8.482;2023-11-19T15:23:18;8.10;93.50
32506;DHT22;18955;51.224;8.482;2023-11-19T15:25:45;8.10;93.50
32506;DHT22;18955;51.224;8.482;2023-11-19T15:28:11;8.10;93.60
32506;DHT22;18955;51.224;8.482;2023-11-19T15:30:37;8.10;93.60
32506;DHT22;18955;51.224;8.482;2023-11-19T15:33:04;8.10;93.50
32506;DHT22;18955;51.224;8.482;2023-11-19T15:35:30;8.10;93.50
32506;DHT22;18955;51.224;8.482;2023-11-19T15:37:56;8.10;93.50
32506;DHT22;18955;51.224;8.482;2023-11-19T15:40:22;8.10;93.50
32506;DHT22;18955;51.224;8.482;2023-11-19T15:42:48;8.10;93.50
32506;DHT22;18955;51.224;8.482;2023-11-19T15:45:15;8.10;93.50
32506;DHT22;18955;51.224;8.482;2023-11-19T15:47:42;8.10;93.50
32506;DHT22;18955;51.224;8.482;2023-11-19T15:50:08;8.10;93.70
32506;DHT22;18955;51.224;8.482;2023-11-19T15:52:36;8.10;93.50
32506;DHT22;18955;51.224;8.482;2023-11-19T15:55:04;8.10;93.50
32506;DHT22;18955;51.224;8.482;2023-11-19T15:57:30;8.10;93.50
32506;DHT22;18955;51.224;8.482;2023-11-19T15:59:56;8.10;93.70
32506;DHT22;18955;51.224;8.482;2023-11-19T16:02:23;8.10;93.50
32506;DHT22;18955;51.224;8.482;2023-11-19T16:04:49;8.10;93.50
32506;DHT22;18955;51.224;8.482;2023-11-19T16:07:16;8.10;93.50
32506;DHT22;18955;51.224;8.482;2023-11-19T16:09:42;8.10;93.50
32506;DHT22;18955;51.224;8.482;2023-11-19T16:12:09;8.10;93.50